createdAt,value
2018-12-30T00:00:23.971Z,3.61
2018-12-30T00:01:30.780Z,3.61
2018-12-30T00:02:37.505Z,3.60
2018-12-30T00:03:44.192Z,3.61
2018-12-30T00:04:51.439Z,3.61
2018-12-30T00:05:58.041Z,3.61
2018-12-30T00:07:05.236Z,3.63
2018-12-30T00:08:11.940Z,3.63
2018-12-30T00:09:18.588Z,3.63
2018-12-30T00:10:25.679Z,3.63
2018-12-30T00:11:32.900Z,3.63
2018-12-30T00:12:39.617Z,3.61
2018-12-30T00:13:46.237Z,3.64
2018-12-30T00:14:53.419Z,3.63
2018-12-30T00:16:00.040Z,3.65
2018-12-30T00:17:06.850Z,3.66
2018-12-30T00:18:13.554Z,3.67
2018-12-30T00:19:20.306Z,3.67
2018-12-30T00:20:26.867Z,3.68
2018-12-30T00:21:34.172Z,3.69
2018-12-30T00:22:40.807Z,3.70
2018-12-30T00:23:47.848Z,3.70
2018-12-30T00:24:55.120Z,3.70
2018-12-30T00:26:01.743Z,3.69
2018-12-30T00:27:09.024Z,3.69
2018-12-30T00:28:15.657Z,3.69
2018-12-30T00:29:22.421Z,3.70
2018-12-30T00:30:29.598Z,3.70
2018-12-30T00:31:36.380Z,3.70
2018-12-30T00:32:43.027Z,3.71
2018-12-30T00:33:50.302Z,3.71
2018-12-30T00:34:56.975Z,3.70
2018-12-30T00:36:04.238Z,3.70
2018-12-30T00:37:10.932Z,3.71
2018-12-30T00:38:18.073Z,3.71
2018-12-30T00:39:25.223Z,3.71
2018-12-30T00:40:32.436Z,3.73
2018-12-30T00:41:39.116Z,3.71
2018-12-30T00:42:45.754Z,3.72
2018-12-30T00:43:53.036Z,3.72
2018-12-30T00:44:59.691Z,3.73
2018-12-30T00:46:06.940Z,3.72
2018-12-30T00:47:13.655Z,3.71
2018-12-30T00:48:20.604Z,3.73
2018-12-30T00:49:27.162Z,3.73
2018-12-30T00:50:34.235Z,3.73
2018-12-30T00:51:41.246Z,3.73
2018-12-30T00:52:48.347Z,3.74
2018-12-30T00:53:55.420Z,3.75
2018-12-30T00:55:02.453Z,3.75
2018-12-30T00:56:09.384Z,3.76
2018-12-30T00:57:16.057Z,3.76
2018-12-30T00:58:22.951Z,3.78
2018-12-30T00:59:29.585Z,3.78
2018-12-30T01:00:36.969Z,3.80
2018-12-30T01:01:43.716Z,3.78
2018-12-30T01:02:50.525Z,3.80
2018-12-30T01:03:57.157Z,3.80
2018-12-30T01:05:04.360Z,3.80
2018-12-30T01:06:11.092Z,3.79
2018-12-30T01:07:17.677Z,3.79
2018-12-30T01:08:24.952Z,3.79
2018-12-30T01:09:31.588Z,3.81
2018-12-30T01:10:38.863Z,3.80
2018-12-30T01:11:45.428Z,3.81
2018-12-30T01:12:52.613Z,3.79
2018-12-30T01:13:59.696Z,3.82
2018-12-30T01:15:06.912Z,3.81
2018-12-30T01:16:13.668Z,3.80
2018-12-30T01:17:20.383Z,3.81
2018-12-30T01:18:26.980Z,3.81
2018-12-30T01:19:34.109Z,3.81
2018-12-30T01:20:41.194Z,3.81
2018-12-30T01:21:48.267Z,3.80
2018-12-30T01:22:55.738Z,3.81
2018-12-30T01:24:02.530Z,3.80
2018-12-30T01:25:09.272Z,3.81
2018-12-30T01:26:15.930Z,3.81
2018-12-30T01:27:23.209Z,3.81
2018-12-30T01:28:29.841Z,3.83
2018-12-30T01:29:37.068Z,3.82
2018-12-30T01:30:43.692Z,3.83
2018-12-30T01:31:50.987Z,3.84
2018-12-30T01:32:57.762Z,3.85
2018-12-30T01:34:04.549Z,3.83
2018-12-30T01:35:11.184Z,3.83
2018-12-30T01:36:18.258Z,3.84
2018-12-30T01:37:25.520Z,3.84
2018-12-30T01:38:32.081Z,3.84
2018-12-30T01:39:39.292Z,3.83
2018-12-30T01:40:45.848Z,3.84
2018-12-30T01:41:53.098Z,3.85
2018-12-30T01:42:59.780Z,3.85
2018-12-30T01:44:07.064Z,3.85
2018-12-30T01:45:13.796Z,3.85
2018-12-30T01:46:21.019Z,3.86
2018-12-30T01:47:27.636Z,3.87
2018-12-30T01:48:34.911Z,3.87
2018-12-30T01:49:41.442Z,3.87
2018-12-30T01:50:48.552Z,3.87
2018-12-30T01:51:55.727Z,3.87
2018-12-30T01:53:02.876Z,3.87
2018-12-30T01:54:09.986Z,3.87
2018-12-30T01:55:17.279Z,3.88
2018-12-30T01:56:24.016Z,3.88
2018-12-30T01:57:30.679Z,3.89
2018-12-30T01:58:37.952Z,3.88
2018-12-30T01:59:44.650Z,3.89
2018-12-30T02:00:51.348Z,3.90
2018-12-30T02:01:57.968Z,3.90
2018-12-30T02:03:05.229Z,3.90
2018-12-30T02:04:11.892Z,3.91
2018-12-30T02:05:19.077Z,3.90
2018-12-30T02:06:25.918Z,3.90
2018-12-30T02:07:32.764Z,3.92
2018-12-30T02:08:39.976Z,3.91
2018-12-30T02:09:46.636Z,3.92
2018-12-30T02:10:53.397Z,3.92
2018-12-30T02:12:00.057Z,3.92
2018-12-30T02:13:07.336Z,3.92
2018-12-30T02:14:13.838Z,3.94
2018-12-30T02:15:21.195Z,3.92
2018-12-30T02:16:27.837Z,3.94
2018-12-30T02:17:34.952Z,3.94
2018-12-30T02:18:42.077Z,3.94
2018-12-30T02:19:49.180Z,3.94
2018-12-30T02:20:56.351Z,3.95
2018-12-30T02:22:03.088Z,3.95
2018-12-30T02:23:10.474Z,3.95
2018-12-30T02:24:17.032Z,3.95
2018-12-30T02:25:24.244Z,3.96
2018-12-30T02:26:31.285Z,3.96
2018-12-30T02:27:38.512Z,3.97
2018-12-30T02:28:45.580Z,3.97
2018-12-30T02:29:52.904Z,3.98
2018-12-30T02:30:59.495Z,3.99
2018-12-30T02:32:06.750Z,3.97
2018-12-30T02:33:13.309Z,3.98
2018-12-30T02:34:20.578Z,3.98
2018-12-30T02:35:27.280Z,3.99
2018-12-30T02:36:34.420Z,3.99
2018-12-30T02:37:41.527Z,4.01
2018-12-30T02:38:48.558Z,4.01
2018-12-30T02:39:55.631Z,4.00
2018-12-30T02:41:02.836Z,4.00
2018-12-30T02:42:09.468Z,4.01
2018-12-30T02:43:16.556Z,4.01
2018-12-30T02:44:23.716Z,4.02
2018-12-30T02:45:30.764Z,4.01
2018-12-30T02:46:37.991Z,4.04
2018-12-30T02:47:44.630Z,4.04
2018-12-30T02:48:51.910Z,4.04
2018-12-30T02:49:58.484Z,4.05
2018-12-30T02:51:05.561Z,4.03
2018-12-30T02:52:12.736Z,4.04
2018-12-30T02:53:19.999Z,4.05
2018-12-30T02:54:26.671Z,4.05
2018-12-30T02:55:33.323Z,4.06
2018-12-30T02:56:40.504Z,4.05
2018-12-30T02:57:47.349Z,4.06
2018-12-30T02:58:54.400Z,4.05
2018-12-30T03:00:01.497Z,4.06
2018-12-30T03:01:08.485Z,4.07
2018-12-30T03:02:15.602Z,4.08
2018-12-30T03:03:22.816Z,4.07
2018-12-30T03:04:29.378Z,4.07
2018-12-30T03:05:36.653Z,4.08
2018-12-30T03:06:43.452Z,4.08
2018-12-30T03:07:50.184Z,4.08
2018-12-30T03:08:56.744Z,4.08
2018-12-30T03:10:03.917Z,4.10
2018-12-30T03:11:10.519Z,4.10
2018-12-30T03:12:17.798Z,4.10
2018-12-30T03:13:24.467Z,4.11
2018-12-30T03:14:31.090Z,4.12
2018-12-30T03:15:38.355Z,4.11
2018-12-30T03:16:45.050Z,4.12
2018-12-30T03:17:52.296Z,4.12
2018-12-30T03:18:58.793Z,4.12
2018-12-30T03:20:06.033Z,4.13
2018-12-30T03:21:12.696Z,4.13
2018-12-30T03:22:19.330Z,4.15
2018-12-30T03:23:26.536Z,4.14
2018-12-30T03:24:33.202Z,4.15
2018-12-30T03:25:40.385Z,4.14
2018-12-30T03:26:47.036Z,4.15
2018-12-30T03:27:54.232Z,4.16
2018-12-30T03:29:00.883Z,4.17
2018-12-30T03:30:08.081Z,4.16
2018-12-30T03:31:14.820Z,4.17
2018-12-30T03:32:22.112Z,4.17
2018-12-30T03:33:28.681Z,4.18
2018-12-30T03:34:35.915Z,4.18
2018-12-30T03:35:42.597Z,4.19
2018-12-30T03:36:49.247Z,4.19
2018-12-30T03:37:55.820Z,4.20
2018-12-30T03:39:03.094Z,4.20
2018-12-30T03:40:10.068Z,4.20
2018-12-30T03:41:17.151Z,4.20
2018-12-30T03:42:24.333Z,4.20
2018-12-30T03:43:30.977Z,4.22
2018-12-30T03:44:38.148Z,4.21
2018-12-30T03:45:44.705Z,4.22
2018-12-30T03:46:51.979Z,4.23
2018-12-30T03:47:58.591Z,4.24
2018-12-30T03:49:05.768Z,4.23
2018-12-30T03:50:12.399Z,4.26
2018-12-30T03:51:19.450Z,4.25
2018-12-30T03:52:26.544Z,4.25
2018-12-30T03:53:33.696Z,4.26
2018-12-30T03:54:40.876Z,4.26
2018-12-30T03:55:47.486Z,4.27
2018-12-30T03:56:54.915Z,4.27
2018-12-30T03:58:01.496Z,4.27
2018-12-30T03:59:08.647Z,4.27
2018-12-30T04:00:15.716Z,4.28
2018-12-30T04:01:23.012Z,4.28
2018-12-30T04:02:29.701Z,4.30
2018-12-30T04:03:36.448Z,4.30
2018-12-30T04:04:43.089Z,4.30
2018-12-30T04:05:50.296Z,4.30
2018-12-30T04:06:56.927Z,4.30
2018-12-30T04:08:04.224Z,4.31
2018-12-30T04:09:10.969Z,4.32
2018-12-30T04:10:18.242Z,4.33
2018-12-30T04:11:25.012Z,4.32
2018-12-30T04:12:31.688Z,4.32
2018-12-30T04:13:38.557Z,4.32
2018-12-30T04:14:45.197Z,4.33
2018-12-30T04:15:52.487Z,4.33
2018-12-30T04:16:59.136Z,4.35
2018-12-30T04:18:06.435Z,4.36
2018-12-30T04:19:13.071Z,4.36
2018-12-30T04:20:20.353Z,4.36
2018-12-30T04:21:27.036Z,4.37
2018-12-30T04:22:33.928Z,4.36
2018-12-30T04:23:40.672Z,4.38
2018-12-30T04:24:47.400Z,4.38
2018-12-30T04:25:54.531Z,4.39
2018-12-30T04:27:01.604Z,4.40
2018-12-30T04:28:08.789Z,4.40
2018-12-30T04:29:15.886Z,4.40
2018-12-30T04:30:23.193Z,4.40
2018-12-30T04:31:29.800Z,4.42
2018-12-30T04:32:37.032Z,4.41
2018-12-30T04:33:43.717Z,4.44
2018-12-30T04:34:50.459Z,4.44
2018-12-30T04:35:57.216Z,4.44
2018-12-30T04:37:04.505Z,4.44
2018-12-30T04:38:11.168Z,4.46
2018-12-30T04:39:18.256Z,4.46
2018-12-30T04:40:25.487Z,4.47
2018-12-30T04:41:32.073Z,4.47
2018-12-30T04:42:39.262Z,4.48
2018-12-30T04:43:46.052Z,4.49
2018-12-30T04:44:52.736Z,4.50
2018-12-30T04:45:59.847Z,4.50
2018-12-30T04:47:07.113Z,4.50
2018-12-30T04:48:13.885Z,4.51
2018-12-30T04:49:20.687Z,4.53
2018-12-30T04:50:27.312Z,4.52
2018-12-30T04:51:34.192Z,4.53
2018-12-30T04:52:40.885Z,4.54
2018-12-30T04:53:48.035Z,4.55
2018-12-30T04:54:55.472Z,4.55
2018-12-30T04:56:02.160Z,4.56
2018-12-30T04:57:09.244Z,4.56
2018-12-30T04:58:16.503Z,4.57
2018-12-30T04:59:23.213Z,4.57
2018-12-30T05:00:29.949Z,4.58
2018-12-30T05:01:37.224Z,4.59
2018-12-30T05:02:43.876Z,4.61
2018-12-30T05:03:51.159Z,4.60
2018-12-30T05:04:57.719Z,4.61
2018-12-30T05:06:04.995Z,4.62
2018-12-30T05:07:11.656Z,4.61
2018-12-30T05:08:18.837Z,4.61
2018-12-30T05:09:25.625Z,4.64
2018-12-30T05:10:32.775Z,4.64
2018-12-30T05:11:39.431Z,4.65
2018-12-30T05:12:46.580Z,4.66
2018-12-30T05:13:53.794Z,4.66
2018-12-30T05:15:00.569Z,4.68
2018-12-30T05:16:07.529Z,4.67
2018-12-30T05:17:14.175Z,4.68
2018-12-30T05:18:21.399Z,4.69
2018-12-30T05:19:28.050Z,4.69
2018-12-30T05:20:35.300Z,4.70
2018-12-30T05:21:41.887Z,4.71
2018-12-30T05:22:49.037Z,4.72
2018-12-30T05:23:56.216Z,4.72
2018-12-30T05:25:02.892Z,4.72
2018-12-30T05:26:09.672Z,4.74
2018-12-30T05:27:16.307Z,4.74
2018-12-30T05:28:23.483Z,4.75
2018-12-30T05:29:30.139Z,4.74
2018-12-30T05:30:37.329Z,4.76
2018-12-30T05:31:44.088Z,4.76
2018-12-30T05:32:50.841Z,4.77
2018-12-30T05:33:57.611Z,4.79
2018-12-30T05:35:04.404Z,4.79
2018-12-30T05:36:11.133Z,4.80
2018-12-30T05:37:17.806Z,4.80
2018-12-30T05:38:25.173Z,4.80
2018-12-30T05:39:31.752Z,4.81
2018-12-30T05:40:38.937Z,4.82
2018-12-30T05:41:45.949Z,4.83
2018-12-30T05:42:53.267Z,4.84
2018-12-30T05:43:59.933Z,4.83
2018-12-30T05:45:06.703Z,4.85
2018-12-30T05:46:13.367Z,4.84
2018-12-30T05:47:20.695Z,4.85
2018-12-30T05:48:27.287Z,4.86
2018-12-30T05:49:34.576Z,4.86
2018-12-30T05:50:41.249Z,4.86
2018-12-30T05:51:47.945Z,4.86
2018-12-30T05:52:54.981Z,4.89
2018-12-30T05:54:01.633Z,4.88
2018-12-30T05:55:08.912Z,4.89
2018-12-30T05:56:15.684Z,4.90
2018-12-30T05:57:22.619Z,4.91
2018-12-30T05:58:29.206Z,4.90
2018-12-30T05:59:36.494Z,4.92
2018-12-30T06:00:42.956Z,4.92
2018-12-30T06:01:50.215Z,4.93
2018-12-30T06:02:56.893Z,4.93
2018-12-30T06:04:04.056Z,4.94
2018-12-30T06:05:11.129Z,4.94
2018-12-30T06:06:18.224Z,4.94
2018-12-30T06:07:25.390Z,4.95
2018-12-30T06:08:32.008Z,4.95
2018-12-30T06:09:39.180Z,4.96
2018-12-30T06:10:45.865Z,4.96
2018-12-30T06:11:53.084Z,4.97
2018-12-30T06:12:59.706Z,4.98
2018-12-30T06:14:07.096Z,4.98
2018-12-30T06:15:13.743Z,4.98
2018-12-30T06:16:21.056Z,4.99
2018-12-30T06:17:27.688Z,5.00
2018-12-30T06:18:34.462Z,4.99
2018-12-30T06:19:41.532Z,5.00
2018-12-30T06:20:48.704Z,5.00
2018-12-30T06:21:55.385Z,5.01
2018-12-30T06:23:02.500Z,5.02
2018-12-30T06:24:09.161Z,5.02
2018-12-30T06:25:16.496Z,5.04
2018-12-30T06:26:23.242Z,5.04
2018-12-30T06:27:30.518Z,5.05
2018-12-30T06:28:36.983Z,5.05
2018-12-30T06:29:43.579Z,5.05
2018-12-30T06:30:50.816Z,5.05
2018-12-30T06:31:57.488Z,5.06
2018-12-30T06:33:04.758Z,5.06
2018-12-30T06:34:11.644Z,5.06
2018-12-30T06:35:18.282Z,5.07
2018-12-30T06:36:25.603Z,5.09
2018-12-30T06:37:32.228Z,5.10
2018-12-30T06:38:39.420Z,5.10
2018-12-30T06:39:46.367Z,5.12
2018-12-30T06:40:53.652Z,5.13
2018-12-30T06:42:00.321Z,5.15
2018-12-30T06:43:07.101Z,5.14
2018-12-30T06:44:13.936Z,5.14
2018-12-30T06:45:20.685Z,5.16
2018-12-30T06:46:27.259Z,5.16
2018-12-30T06:47:34.359Z,5.17
2018-12-30T06:48:41.404Z,5.16
2018-12-30T06:49:48.687Z,5.16
2018-12-30T06:50:55.469Z,5.16
2018-12-30T06:52:02.057Z,5.17
2018-12-30T06:53:09.204Z,5.17
2018-12-30T06:54:15.961Z,5.17
2018-12-30T06:55:23.182Z,5.19
2018-12-30T06:56:29.389Z,5.18
2018-12-30T06:57:36.983Z,5.19
2018-12-30T06:58:43.937Z,5.21
2018-12-30T06:59:50.711Z,5.21
2018-12-30T07:00:57.340Z,5.22
2018-12-30T07:02:04.530Z,5.22
2018-12-30T07:03:11.211Z,5.24
2018-12-30T07:04:18.377Z,5.25
2018-12-30T07:05:25.033Z,5.24
2018-12-30T07:06:32.071Z,5.26
2018-12-30T07:07:39.301Z,5.25
2018-12-30T07:08:45.949Z,5.26
2018-12-30T07:09:53.223Z,5.26
2018-12-30T07:10:59.914Z,5.28
2018-12-30T07:12:06.651Z,5.28
2018-12-30T07:13:13.342Z,5.27
2018-12-30T07:14:20.384Z,5.26
2018-12-30T07:15:27.068Z,5.27
2018-12-30T07:16:33.724Z,5.27
2018-12-30T07:17:40.495Z,5.26
2018-12-30T07:18:47.163Z,5.26
2018-12-30T07:19:54.309Z,5.27
2018-12-30T07:21:01.476Z,5.28
2018-12-30T07:22:08.663Z,5.27
2018-12-30T07:23:15.356Z,5.26
2018-12-30T07:24:22.084Z,5.27
2018-12-30T07:25:28.764Z,5.28
2018-12-30T07:26:36.030Z,5.27
2018-12-30T07:27:42.623Z,5.28
2018-12-30T07:28:49.884Z,5.29
2018-12-30T07:29:56.518Z,5.28
2018-12-30T07:31:03.701Z,5.28
2018-12-30T07:32:10.352Z,5.28
2018-12-30T07:33:17.575Z,5.28
2018-12-30T07:34:24.303Z,5.28
2018-12-30T07:35:30.972Z,5.30
2018-12-30T07:36:38.243Z,5.29
2018-12-30T07:37:44.900Z,5.30
2018-12-30T07:38:52.124Z,5.29
2018-12-30T07:39:58.749Z,5.30
2018-12-30T07:41:06.020Z,5.30
2018-12-30T07:42:12.684Z,5.30
2018-12-30T07:43:19.313Z,5.30
2018-12-30T07:44:26.428Z,5.30
2018-12-30T07:45:33.591Z,5.31
2018-12-30T07:46:40.864Z,5.31
2018-12-30T07:47:47.540Z,5.31
2018-12-30T07:48:54.316Z,5.31
2018-12-30T07:50:00.957Z,5.31
2018-12-30T07:51:08.028Z,5.31
2018-12-30T07:52:14.705Z,5.32
2018-12-30T07:53:21.981Z,5.31
2018-12-30T07:54:28.660Z,5.32
2018-12-30T07:55:35.410Z,5.31
2018-12-30T07:56:42.056Z,5.32
2018-12-30T07:57:48.628Z,5.32
2018-12-30T07:58:55.704Z,5.32
2018-12-30T08:00:02.898Z,5.32
2018-12-30T08:01:09.853Z,5.32
2018-12-30T08:02:16.411Z,5.33
2018-12-30T08:03:23.587Z,5.32
2018-12-30T08:04:30.776Z,5.32
2018-12-30T08:05:37.415Z,5.34
2018-12-30T08:06:44.584Z,5.33
2018-12-30T08:07:51.786Z,5.34
2018-12-30T08:08:58.416Z,5.33
2018-12-30T08:10:05.719Z,5.33
2018-12-30T08:11:12.445Z,5.34
2018-12-30T08:12:19.738Z,5.35
2018-12-30T08:13:26.315Z,5.35
2018-12-30T08:14:33.603Z,5.35
2018-12-30T08:15:40.651Z,5.35
2018-12-30T08:16:47.204Z,5.36
2018-12-30T08:17:54.487Z,5.35
2018-12-30T08:19:01.144Z,5.36
2018-12-30T08:20:08.353Z,5.35
2018-12-30T08:21:14.924Z,5.36
2018-12-30T08:22:22.164Z,5.36
2018-12-30T08:23:28.825Z,5.36
2018-12-30T08:24:36.106Z,5.35
2018-12-30T08:25:42.893Z,5.36
2018-12-30T08:26:49.641Z,5.36
2018-12-30T08:27:56.301Z,5.36
2018-12-30T08:29:03.440Z,5.37
2018-12-30T08:30:10.667Z,5.37
2018-12-30T08:31:17.309Z,5.38
2018-12-30T08:32:24.588Z,5.37
2018-12-30T08:33:31.347Z,5.36
2018-12-30T08:34:38.132Z,5.38
2018-12-30T08:35:45.096Z,5.38
2018-12-30T08:36:52.035Z,5.38
2018-12-30T08:37:58.709Z,5.39
2018-12-30T08:39:05.875Z,5.38
2018-12-30T08:40:12.996Z,5.39
2018-12-30T08:41:20.231Z,5.39
2018-12-30T08:42:26.900Z,5.41
2018-12-30T08:43:34.015Z,5.41
2018-12-30T08:44:40.632Z,5.42
2018-12-30T08:45:47.791Z,5.41
2018-12-30T08:46:56.354Z,5.42
2018-12-30T08:48:01.852Z,5.42
2018-12-30T08:49:09.144Z,5.45
2018-12-30T08:50:15.931Z,5.43
2018-12-30T08:51:22.669Z,5.45
2018-12-30T08:52:29.320Z,5.44
2018-12-30T08:53:36.568Z,5.45
2018-12-30T08:54:43.141Z,5.45
2018-12-30T08:55:50.461Z,5.45
2018-12-30T08:56:57.201Z,5.45
2018-12-30T08:58:04.382Z,5.47
2018-12-30T08:59:10.950Z,5.45
2018-12-30T09:00:18.226Z,5.45
2018-12-30T09:01:28.338Z,5.46
2018-12-30T09:02:31.670Z,5.47
2018-12-30T09:03:38.930Z,5.47
2018-12-30T09:04:45.602Z,5.48
2018-12-30T09:05:52.888Z,5.47
2018-12-30T09:06:59.707Z,5.48
2018-12-30T09:08:06.792Z,5.48
2018-12-30T09:09:13.477Z,5.49
2018-12-30T09:10:23.401Z,5.49
2018-12-30T09:11:27.120Z,5.50
2018-12-30T09:12:33.704Z,5.48
2018-12-30T09:13:40.843Z,5.50
2018-12-30T09:14:47.964Z,5.50
2018-12-30T09:15:55.536Z,5.50
2018-12-30T09:17:02.363Z,5.50
2018-12-30T09:18:09.024Z,5.52
2018-12-30T09:19:15.787Z,5.53
2018-12-30T09:20:22.524Z,5.53
2018-12-30T09:21:29.594Z,5.53
2018-12-30T09:22:36.927Z,5.55
2018-12-30T09:23:43.657Z,5.55
2018-12-30T09:24:50.437Z,5.55
2018-12-30T09:25:57.104Z,5.56
2018-12-30T09:27:03.807Z,5.56
2018-12-30T09:28:10.554Z,5.57
2018-12-30T09:29:17.323Z,5.58
2018-12-30T09:30:24.165Z,5.57
2018-12-30T09:31:31.083Z,5.58
2018-12-30T09:32:38.132Z,5.59
2018-12-30T09:33:44.903Z,5.60
2018-12-30T09:34:51.764Z,5.60
2018-12-30T09:35:58.652Z,5.60
2018-12-30T09:37:05.564Z,5.61
2018-12-30T09:38:12.156Z,5.62
2018-12-30T09:39:19.004Z,5.62
2018-12-30T09:40:25.823Z,5.63
2018-12-30T09:41:32.606Z,5.63
2018-12-30T09:42:40.036Z,5.64
2018-12-30T09:43:46.977Z,5.63
2018-12-30T09:44:53.737Z,5.64
2018-12-30T09:46:00.436Z,5.66
2018-12-30T09:47:07.687Z,5.67
2018-12-30T09:48:14.667Z,5.68
2018-12-30T09:49:21.412Z,5.68
2018-12-30T09:50:28.313Z,5.69
2018-12-30T09:51:35.228Z,5.70
2018-12-30T09:52:41.923Z,5.70
2018-12-30T09:53:48.583Z,5.69
2018-12-30T09:54:55.741Z,5.70
2018-12-30T09:56:02.924Z,5.72
2018-12-30T09:57:10.224Z,5.71
2018-12-30T09:58:16.853Z,5.72
2018-12-30T09:59:24.024Z,5.73
2018-12-30T10:00:31.163Z,5.73
2018-12-30T10:01:38.379Z,5.74
2018-12-30T10:02:45.160Z,5.75
2018-12-30T10:03:52.029Z,5.75
2018-12-30T10:04:58.669Z,5.76
2018-12-30T10:06:05.891Z,5.76
2018-12-30T10:07:12.572Z,5.75
2018-12-30T10:08:19.196Z,5.77
2018-12-30T10:09:26.351Z,5.77
2018-12-30T10:10:33.527Z,5.78
2018-12-30T10:11:40.164Z,5.78
2018-12-30T10:12:46.812Z,5.78
2018-12-30T10:13:54.028Z,5.80
2018-12-30T10:15:09.313Z,5.80
2018-12-30T10:16:07.679Z,5.81
2018-12-30T10:17:14.419Z,5.81
2018-12-30T10:18:21.317Z,5.81
2018-12-30T10:19:28.064Z,5.83
2018-12-30T10:20:35.343Z,5.85
2018-12-30T10:21:42.104Z,5.85
2018-12-30T10:22:49.197Z,5.85
2018-12-30T10:23:56.335Z,5.86
2018-12-30T10:25:03.522Z,5.86
2018-12-30T10:26:10.485Z,5.88
2018-12-30T10:27:17.072Z,5.87
2018-12-30T10:28:24.143Z,5.88
2018-12-30T10:29:30.683Z,5.88
2018-12-30T10:30:37.853Z,5.89
2018-12-30T10:31:44.520Z,5.89
2018-12-30T10:32:51.692Z,5.89
2018-12-30T10:33:58.367Z,5.92
2018-12-30T10:35:05.128Z,5.93
2018-12-30T10:36:11.740Z,5.92
2018-12-30T10:37:18.831Z,5.93
2018-12-30T10:38:25.896Z,5.93
2018-12-30T10:39:33.101Z,5.93
2018-12-30T10:40:39.788Z,5.95
2018-12-30T10:41:46.950Z,5.95
2018-12-30T10:42:54.124Z,5.95
2018-12-30T10:44:01.212Z,5.96
2018-12-30T10:45:08.164Z,5.96
2018-12-30T10:46:14.723Z,5.98
2018-12-30T10:47:21.904Z,5.98
2018-12-30T10:48:28.493Z,5.98
2018-12-30T10:49:35.727Z,5.99
2018-12-30T10:50:42.290Z,5.99
2018-12-30T10:51:49.451Z,5.99
2018-12-30T10:52:56.532Z,6.01
2018-12-30T10:54:03.724Z,6.01
2018-12-30T10:55:10.375Z,6.01
2018-12-30T10:56:17.545Z,6.04
2018-12-30T10:57:24.724Z,6.03
2018-12-30T10:58:31.403Z,6.03
2018-12-30T10:59:38.176Z,6.04
2018-12-30T11:00:44.720Z,6.04
2018-12-30T11:01:52.091Z,6.04
2018-12-30T11:02:58.755Z,6.05
2018-12-30T11:04:05.940Z,6.06
2018-12-30T11:05:13.199Z,6.07
2018-12-30T11:06:19.844Z,6.06
2018-12-30T11:07:26.964Z,6.08
2018-12-30T11:08:34.108Z,6.09
2018-12-30T11:09:40.892Z,6.10
2018-12-30T11:10:47.557Z,6.10
2018-12-30T11:11:54.936Z,6.10
2018-12-30T11:13:01.588Z,6.10
2018-12-30T11:14:08.368Z,6.13
2018-12-30T11:15:15.123Z,6.11
2018-12-30T11:16:21.884Z,6.12
2018-12-30T11:17:28.486Z,6.12
2018-12-30T11:18:35.713Z,6.13
2018-12-30T11:19:42.508Z,6.14
2018-12-30T11:20:49.147Z,6.15
2018-12-30T11:21:56.328Z,6.15
2018-12-30T11:23:03.095Z,6.15
2018-12-30T11:24:09.879Z,6.15
2018-12-30T11:25:16.624Z,6.17
2018-12-30T11:26:23.384Z,6.16
2018-12-30T11:27:30.039Z,6.17
2018-12-30T11:28:36.784Z,6.17
2018-12-30T11:29:43.429Z,6.18
2018-12-30T11:30:50.750Z,6.19
2018-12-30T11:31:57.415Z,6.18
2018-12-30T11:33:04.283Z,6.19
2018-12-30T11:34:11.045Z,6.20
2018-12-30T11:35:17.797Z,6.22
2018-12-30T11:36:24.573Z,6.21
2018-12-30T11:37:31.235Z,6.22
2018-12-30T11:38:37.996Z,6.22
2018-12-30T11:39:44.688Z,6.23
2018-12-30T11:40:51.533Z,6.24
2018-12-30T11:41:58.258Z,6.25
2018-12-30T11:43:05.575Z,6.26
2018-12-30T11:44:12.244Z,6.26
2018-12-30T11:45:19.026Z,6.27
2018-12-30T11:46:25.658Z,6.28
2018-12-30T11:47:32.834Z,6.28
2018-12-30T11:48:39.710Z,6.28
2018-12-30T11:49:46.613Z,6.27
2018-12-30T11:50:53.556Z,6.29
2018-12-30T11:52:00.315Z,6.29
2018-12-30T11:53:07.080Z,6.29
2018-12-30T11:54:16.522Z,6.29
2018-12-30T11:55:20.505Z,6.30
2018-12-30T11:56:27.097Z,6.31
2018-12-30T11:57:34.338Z,6.31
2018-12-30T11:58:40.903Z,6.33
2018-12-30T11:59:48.117Z,6.32
2018-12-30T12:00:55.141Z,6.33
2018-12-30T12:02:01.814Z,6.33
2018-12-30T12:03:08.581Z,6.34
2018-12-30T12:04:15.232Z,6.34
2018-12-30T12:05:22.532Z,6.35
2018-12-30T12:06:29.182Z,6.34
2018-12-30T12:07:36.440Z,6.37
2018-12-30T12:08:43.048Z,6.37
2018-12-30T12:09:50.281Z,6.37
2018-12-30T12:10:56.973Z,6.37
2018-12-30T12:12:03.724Z,6.37
2018-12-30T12:13:10.394Z,6.37
2018-12-30T12:14:17.247Z,6.39
2018-12-30T12:15:24.032Z,6.39
2018-12-30T12:16:30.657Z,6.39
2018-12-30T12:17:37.947Z,6.39
2018-12-30T12:18:44.593Z,6.40
2018-12-30T12:19:52.005Z,6.42
2018-12-30T12:20:58.744Z,6.42
2018-12-30T12:22:06.035Z,6.42
2018-12-30T12:23:12.677Z,6.43
2018-12-30T12:24:24.225Z,6.44
2018-12-30T12:25:26.671Z,6.46
2018-12-30T12:26:33.172Z,6.45
2018-12-30T12:27:40.269Z,6.46
2018-12-30T12:28:47.363Z,6.47
2018-12-30T12:29:54.620Z,6.47
2018-12-30T12:31:01.308Z,6.47
2018-12-30T12:32:08.069Z,6.47
2018-12-30T12:33:14.814Z,6.48
2018-12-30T12:34:21.646Z,6.49
2018-12-30T12:35:28.337Z,6.49
2018-12-30T12:36:35.641Z,6.50
2018-12-30T12:37:42.395Z,6.50
2018-12-30T12:38:49.147Z,6.50
2018-12-30T12:39:55.708Z,6.52
2018-12-30T12:41:03.003Z,6.52
2018-12-30T12:42:09.509Z,6.52
2018-12-30T12:43:16.698Z,6.51
2018-12-30T12:44:23.900Z,6.53
2018-12-30T12:45:30.500Z,6.54
2018-12-30T12:46:37.650Z,6.53
2018-12-30T12:47:44.800Z,6.54
2018-12-30T12:48:51.599Z,6.56
2018-12-30T12:49:58.228Z,6.55
2018-12-30T12:51:05.523Z,6.57
2018-12-30T12:52:12.273Z,6.57
2018-12-30T12:53:18.912Z,6.57
2018-12-30T12:54:32.057Z,6.58
2018-12-30T12:55:32.817Z,6.58
2018-12-30T12:56:39.574Z,6.61
2018-12-30T12:57:46.301Z,6.61
2018-12-30T12:58:52.983Z,6.60
2018-12-30T12:59:59.734Z,6.61
2018-12-30T13:01:06.387Z,6.61
2018-12-30T13:02:13.505Z,6.63
2018-12-30T13:03:20.737Z,6.61
2018-12-30T13:04:27.431Z,6.64
2018-12-30T13:05:34.591Z,6.64
2018-12-30T13:06:41.713Z,6.64
2018-12-30T13:07:48.956Z,6.64
2018-12-30T13:08:55.493Z,6.64
2018-12-30T13:10:02.688Z,6.67
2018-12-30T13:11:09.628Z,6.66
2018-12-30T13:12:16.316Z,6.68
2018-12-30T13:13:23.068Z,6.66
2018-12-30T13:14:29.821Z,6.67
2018-12-30T13:15:36.591Z,6.68
2018-12-30T13:16:43.228Z,6.68
2018-12-30T13:17:50.488Z,6.68
2018-12-30T13:18:57.303Z,6.69
2018-12-30T13:20:03.961Z,6.70
2018-12-30T13:21:10.664Z,6.69
2018-12-30T13:22:17.920Z,6.70
2018-12-30T13:23:24.676Z,6.70
2018-12-30T13:24:31.501Z,6.71
2018-12-30T13:25:38.491Z,6.72
2018-12-30T13:26:45.092Z,6.73
2018-12-30T13:27:52.364Z,6.73
2018-12-30T13:28:59.100Z,6.73
2018-12-30T13:30:06.380Z,6.73
2018-12-30T13:31:13.088Z,6.74
2018-12-30T13:32:20.316Z,6.74
2018-12-30T13:33:26.926Z,6.73
2018-12-30T13:34:34.174Z,6.73
2018-12-30T13:35:43.533Z,6.76
2018-12-30T13:36:49.760Z,6.73
2018-12-30T13:37:55.011Z,6.75
2018-12-30T13:39:01.793Z,6.76
2018-12-30T13:40:08.842Z,6.77
2018-12-30T13:41:15.682Z,6.78
2018-12-30T13:42:22.448Z,6.78
2018-12-30T13:43:29.122Z,6.77
2018-12-30T13:44:35.883Z,6.78
2018-12-30T13:45:42.528Z,6.78
2018-12-30T13:46:54.004Z,6.79
2018-12-30T13:47:56.157Z,6.78
2018-12-30T13:49:02.841Z,6.79
2018-12-30T13:50:10.096Z,6.79
2018-12-30T13:51:16.715Z,6.79
2018-12-30T13:52:23.928Z,6.79
2018-12-30T13:53:30.507Z,6.80
2018-12-30T13:54:37.664Z,6.80
2018-12-30T13:55:44.185Z,6.81
2018-12-30T13:56:51.515Z,6.80
2018-12-30T13:57:58.330Z,6.81
2018-12-30T13:59:05.239Z,6.81
2018-12-30T14:00:11.901Z,6.82
2018-12-30T14:01:19.084Z,6.82
2018-12-30T14:02:25.741Z,6.82
2018-12-30T14:03:32.932Z,6.83
2018-12-30T14:04:39.628Z,6.82
2018-12-30T14:05:46.236Z,6.81
2018-12-30T14:06:53.439Z,6.82
2018-12-30T14:08:00.179Z,6.84
2018-12-30T14:09:06.963Z,6.84
2018-12-30T14:10:13.609Z,6.83
2018-12-30T14:11:20.880Z,6.83
2018-12-30T14:12:27.587Z,6.83
2018-12-30T14:13:34.229Z,6.84
2018-12-30T14:14:40.965Z,6.84
2018-12-30T14:15:51.087Z,6.84
2018-12-30T14:16:54.862Z,6.83
2018-12-30T14:18:01.577Z,6.86
2018-12-30T14:19:08.371Z,6.85
2018-12-30T14:20:15.009Z,6.86
2018-12-30T14:21:22.292Z,6.86
2018-12-30T14:22:28.946Z,6.87
2018-12-30T14:23:36.211Z,6.84
2018-12-30T14:24:42.956Z,6.87
2018-12-30T14:25:49.651Z,6.86
2018-12-30T14:26:59.958Z,6.85
2018-12-30T14:28:04.006Z,6.85
2018-12-30T14:29:10.693Z,6.85
2018-12-30T14:30:17.519Z,6.86
2018-12-30T14:31:24.289Z,6.88
2018-12-30T14:32:31.502Z,6.87
2018-12-30T14:33:38.236Z,6.89
2018-12-30T14:34:44.914Z,6.87
2018-12-30T14:35:52.182Z,6.87
2018-12-30T14:36:58.831Z,6.88
2018-12-30T14:38:06.104Z,6.88
2018-12-30T14:39:12.800Z,6.89
2018-12-30T14:40:19.986Z,6.89
2018-12-30T14:41:26.615Z,6.88
2018-12-30T14:42:33.643Z,6.89
2018-12-30T14:43:40.755Z,6.89
2018-12-30T14:44:47.940Z,6.90
2018-12-30T14:45:54.697Z,6.89
2018-12-30T14:47:01.469Z,6.90
2018-12-30T14:48:08.227Z,6.89
2018-12-30T14:49:14.924Z,6.89
2018-12-30T14:50:21.672Z,6.91